createdAt,value
2019-03-22T00:00:45.138Z,98481.74
2019-03-22T00:03:11.692Z,98482.28
2019-03-22T00:05:38.252Z,98490.13
2019-03-22T00:08:04.904Z,98485.80
2019-03-22T00:10:31.308Z,98476.87
2019-03-22T00:12:57.998Z,98486.06
2019-03-22T00:15:24.481Z,98483.36
2019-03-22T00:17:51.015Z,98473.36
2019-03-22T00:20:17.298Z,98473.36
2019-03-22T00:22:43.953Z,98478.77
2019-03-22T00:25:10.460Z,98479.03
2019-03-22T00:27:37.026Z,98471.20
2019-03-22T00:30:08.231Z,98472.00
2019-03-22T00:32:34.873Z,98474.98
2019-03-22T00:35:01.346Z,98470.39
2019-03-22T00:37:27.894Z,98465.52
2019-03-22T00:39:56.107Z,98467.14
2019-03-22T00:42:22.511Z,98463.63
2019-03-22T00:44:48.846Z,98459.30
2019-03-22T00:47:15.132Z,98454.70
2019-03-22T00:49:41.559Z,98452.81
2019-03-22T00:52:08.091Z,98450.65
2019-03-22T00:54:34.550Z,98451.19
2019-03-22T00:57:01.386Z,98452.30
2019-03-22T00:59:27.885Z,98452.84
2019-03-22T01:01:54.566Z,98444.45
2019-03-22T01:04:21.077Z,98455.54
2019-03-22T01:06:47.670Z,98455.00
2019-03-22T01:09:14.095Z,98448.27
2019-03-22T01:11:40.684Z,98450.70
2019-03-22T01:14:07.646Z,98456.38
2019-03-22T01:16:34.142Z,98455.57
2019-03-22T01:19:00.603Z,98456.38
2019-03-22T01:21:26.991Z,98451.79
2019-03-22T01:23:53.391Z,98455.54
2019-03-22T01:26:19.819Z,98450.67
2019-03-22T01:28:46.474Z,98455.55
2019-03-22T01:31:13.087Z,98450.41
2019-03-22T01:33:39.595Z,98450.41
2019-03-22T01:36:06.388Z,98457.16
2019-03-22T01:38:32.792Z,98451.79
2019-03-22T01:40:59.406Z,98451.79
2019-03-22T01:43:25.731Z,98444.22
2019-03-22T01:45:52.027Z,98453.95
2019-03-22T01:48:19.102Z,98446.37
2019-03-22T01:50:45.694Z,98449.08
2019-03-22T01:53:12.505Z,98442.56
2019-03-22T01:55:39.096Z,98441.76
2019-03-22T01:58:05.723Z,98432.02
2019-03-22T02:00:32.322Z,98437.43
2019-03-22T02:02:59.130Z,98438.52
2019-03-22T02:05:26.115Z,98445.81
2019-03-22T02:07:52.819Z,98437.97
2019-03-22T02:10:19.559Z,98442.27
2019-03-22T02:12:46.030Z,98441.19
2019-03-22T02:15:14.339Z,98435.78
2019-03-22T02:17:41.300Z,98431.99
2019-03-22T02:20:10.763Z,98422.53
2019-03-22T02:22:37.392Z,98419.55
2019-03-22T02:25:08.433Z,98426.05
2019-03-22T02:27:35.141Z,98425.23
2019-03-22T02:30:03.285Z,98417.93
2019-03-22T02:32:29.943Z,98411.72
2019-03-22T02:34:56.371Z,98415.73
2019-03-22T02:37:22.817Z,98412.77
2019-03-22T02:39:49.334Z,98408.44
2019-03-22T02:42:15.741Z,98407.35
2019-03-22T02:44:42.460Z,98407.63
2019-03-22T02:47:08.863Z,98406.00
2019-03-22T02:49:35.504Z,98404.11
2019-03-22T02:52:02.023Z,98403.06
2019-03-22T02:54:28.508Z,98390.89
2019-03-22T02:56:55.225Z,98391.71
2019-03-22T02:59:21.606Z,98396.07
2019-03-22T03:01:48.206Z,98405.30
2019-03-22T03:04:14.851Z,98415.02
2019-03-22T03:06:41.505Z,98414.22
2019-03-22T03:09:08.221Z,98415.27
2019-03-22T03:11:34.754Z,98418.78
2019-03-22T03:14:01.471Z,98421.48
2019-03-22T03:16:27.994Z,98427.43
2019-03-22T03:18:55.007Z,98421.75
2019-03-22T03:21:21.599Z,98421.75
2019-03-22T03:23:48.067Z,98431.45
2019-03-22T03:26:14.482Z,98423.88
2019-03-22T03:28:41.018Z,98427.67
2019-03-22T03:31:07.696Z,98427.67
2019-03-22T03:33:34.129Z,98422.53
2019-03-22T03:36:00.931Z,98426.58
2019-03-22T03:38:27.744Z,98425.47
2019-03-22T03:40:54.396Z,98424.39
2019-03-22T03:43:20.928Z,98428.45
2019-03-22T03:45:47.551Z,98430.06
2019-03-22T03:48:14.244Z,98440.88
2019-03-22T03:50:40.675Z,98437.09
2019-03-22T03:53:07.411Z,98440.07
2019-03-22T03:55:34.300Z,98438.98
2019-03-22T03:58:01.082Z,98445.48
2019-03-22T04:00:27.763Z,98438.75
2019-03-22T04:02:54.295Z,98433.34
2019-03-22T04:05:20.781Z,98435.51
2019-03-22T04:07:47.409Z,98437.40
2019-03-22T04:10:14.143Z,98431.45
2019-03-22T04:12:40.526Z,98424.42
2019-03-22T04:15:07.847Z,98426.89
2019-03-22T04:17:34.392Z,98421.20
2019-03-22T04:20:00.920Z,98426.62
2019-03-22T04:22:27.444Z,98428.78
2019-03-22T04:24:53.990Z,98431.48
2019-03-22T04:27:20.682Z,98422.83
2019-03-22T04:29:47.107Z,98433.38
2019-03-22T04:32:13.799Z,98436.08
2019-03-22T04:34:40.197Z,98443.92
2019-03-22T04:37:06.711Z,98449.84
2019-03-22T04:39:33.103Z,98447.41
2019-03-22T04:41:59.763Z,98446.05
2019-03-22T04:44:26.383Z,98445.52
2019-03-22T04:46:53.503Z,98450.65
2019-03-22T04:49:21.786Z,98456.33
2019-03-22T04:51:49.056Z,98451.70
2019-03-22T04:54:18.455Z,98447.64
2019-03-22T04:56:46.090Z,98447.91
2019-03-22T04:59:19.240Z,98450.61
2019-03-22T05:01:45.688Z,98448.45
2019-03-22T05:04:12.354Z,98447.91
2019-03-22T05:06:40.747Z,98449.80
2019-03-22T05:09:10.364Z,98442.27
2019-03-22T05:11:37.460Z,98440.38
2019-03-22T05:14:04.326Z,98442.27
2019-03-22T05:16:34.625Z,98433.38
2019-03-22T05:19:03.471Z,98439.59
2019-03-22T05:21:31.468Z,98433.11
2019-03-22T05:24:01.281Z,98426.08
2019-03-22T05:26:31.415Z,98424.45
2019-03-22T05:28:58.118Z,98429.05
2019-03-22T05:31:56.321Z,98426.34
2019-03-22T05:34:22.818Z,98431.45
2019-03-22T05:36:49.331Z,98440.34
2019-03-22T05:39:15.872Z,98430.34
2019-03-22T05:41:42.251Z,98444.63
2019-03-22T05:44:09.577Z,98438.37
2019-03-22T05:46:36.019Z,98428.06
2019-03-22T05:49:02.879Z,98426.70
2019-03-22T05:51:29.286Z,98432.61
2019-03-22T05:53:56.019Z,98438.27
2019-03-22T05:56:22.619Z,98431.73
2019-03-22T05:58:49.055Z,98430.33
2019-03-22T06:01:15.448Z,98427.04
2019-03-22T06:03:42.272Z,98423.23
2019-03-22T06:06:08.676Z,98425.61
2019-03-22T06:08:35.445Z,98419.61
2019-03-22T06:11:01.977Z,98418.47
2019-03-22T06:13:28.415Z,98426.25
2019-03-22T06:15:55.274Z,98416.16
2019-03-22T06:18:21.815Z,98409.59
2019-03-22T06:20:48.455Z,98403.03
2019-03-22T06:23:15.167Z,98406.52
2019-03-22T06:25:41.818Z,98412.67
2019-03-22T06:28:09.956Z,98416.11
2019-03-22T06:30:36.318Z,98405.47
2019-03-22T06:33:02.947Z,98415.41
2019-03-22T06:35:29.519Z,98419.53
2019-03-22T06:37:55.823Z,98413.15
2019-03-22T06:40:22.452Z,98415.92
2019-03-22T06:42:48.939Z,98421.02
2019-03-22T06:45:15.521Z,98420.39
2019-03-22T06:47:41.959Z,98426.78
2019-03-22T06:50:08.701Z,98430.98
2019-03-22T06:52:35.333Z,98430.86
2019-03-22T06:55:03.734Z,98430.28
2019-03-22T06:57:30.245Z,98437.19
2019-03-22T07:00:06.020Z,98439.16
2019-03-22T07:02:25.163Z,98444.01
2019-03-22T07:04:51.558Z,98450.80
2019-03-22T07:07:17.967Z,98453.48
2019-03-22T07:09:44.710Z,98448.61
2019-03-22T07:12:11.144Z,98452.38
2019-03-22T07:14:38.204Z,98451.02
2019-03-22T07:17:04.683Z,98446.12
2019-03-22T07:19:31.255Z,98454.68
2019-03-22T07:21:57.683Z,98451.36
2019-03-22T07:24:24.172Z,98445.27
2019-03-22T07:26:50.617Z,98452.84
2019-03-22T07:29:17.010Z,98453.73
2019-03-22T07:31:43.387Z,98461.64
2019-03-22T07:34:09.875Z,98469.91
2019-03-22T07:36:36.550Z,98474.21
2019-03-22T07:39:06.846Z,98475.89
2019-03-22T07:41:33.215Z,98485.44
2019-03-22T07:43:59.603Z,98479.19
2019-03-22T07:46:26.130Z,98483.17
2019-03-22T07:48:52.538Z,98485.22
2019-03-22T07:51:18.967Z,98478.98
2019-03-22T07:53:46.292Z,98475.55
2019-03-22T07:56:12.804Z,98484.42
2019-03-22T07:58:39.464Z,98492.95
2019-03-22T08:01:05.852Z,98495.14
2019-03-22T08:03:32.299Z,98488.39
2019-03-22T08:05:58.911Z,98494.13
2019-03-22T08:08:25.442Z,98501.06
2019-03-22T08:10:52.038Z,98500.59
2019-03-22T08:13:18.462Z,98511.38
2019-03-22T08:15:45.263Z,98504.25
2019-03-22T08:18:11.715Z,98505.02
2019-03-22T08:20:38.920Z,98499.16
2019-03-22T08:23:17.002Z,98499.23
2019-03-22T08:25:43.634Z,98491.06
2019-03-22T08:28:10.392Z,98496.12
2019-03-22T08:30:42.847Z,98496.75
2019-03-22T08:33:05.212Z,98505.88
2019-03-22T08:35:31.739Z,98502.16
2019-03-22T08:37:58.179Z,98503.78
2019-03-22T08:40:24.587Z,98501.48
2019-03-22T08:42:51.683Z,98503.31
2019-03-22T08:45:18.587Z,98507.61
2019-03-22T08:47:45.219Z,98507.67
2019-03-22T08:50:12.219Z,98508.48
2019-03-22T08:52:38.628Z,98507.97
2019-03-22T08:55:05.881Z,98517.95
2019-03-22T08:57:32.479Z,98517.19
2019-03-22T08:59:58.888Z,98518.81
2019-03-22T09:02:25.600Z,98515.47
2019-03-22T09:04:51.972Z,98513.03
2019-03-22T09:11:21.554Z,98522.81
2019-03-22T09:13:48.218Z,98527.27
2019-03-22T09:16:14.639Z,98535.46
2019-03-22T09:18:41.168Z,98526.40
2019-03-22T09:21:07.632Z,98531.77
2019-03-22T09:23:34.228Z,98540.13
2019-03-22T09:26:00.787Z,98537.01
2019-03-22T09:28:27.274Z,98538.80
2019-03-22T09:30:54.346Z,98536.71
2019-03-22T09:33:20.987Z,98538.70
2019-03-22T09:35:47.801Z,98544.75
2019-03-22T09:38:14.238Z,98542.28
2019-03-22T09:40:40.947Z,98540.11
2019-03-22T09:43:07.390Z,98537.94
2019-03-22T09:45:34.080Z,98537.40
2019-03-22T09:48:00.667Z,98536.92
2019-03-22T09:50:27.157Z,98531.95
2019-03-22T09:52:53.753Z,98512.09
2019-03-22T09:55:20.291Z,98512.09
2019-03-22T09:57:49.308Z,98530.33
2019-03-22T10:00:33.610Z,98530.11
2019-03-22T10:03:01.654Z,98526.02
2019-03-22T10:05:28.449Z,98528.67
2019-03-22T10:07:54.852Z,98532.19
2019-03-22T10:10:21.735Z,98536.20
2019-03-22T10:12:48.190Z,98536.20
2019-03-22T10:15:14.824Z,98538.08
2019-03-22T10:17:41.392Z,98535.05
2019-03-22T10:20:08.539Z,98533.39
2019-03-22T10:22:34.971Z,98530.92
2019-03-22T10:25:04.689Z,98525.95
2019-03-22T10:27:31.055Z,98526.97
2019-03-22T10:29:57.709Z,98526.80
2019-03-22T10:32:24.507Z,98515.97
2019-03-22T10:34:51.160Z,98513.58
2019-03-22T10:37:17.692Z,98521.83
2019-03-22T10:39:44.174Z,98513.14
2019-03-22T10:42:10.735Z,98509.62
2019-03-22T10:44:39.348Z,98511.59
2019-03-22T10:47:06.057Z,98511.41
2019-03-22T10:49:32.438Z,98493.17
2019-03-22T10:51:59.098Z,98486.57
2019-03-22T10:54:25.585Z,98483.22
2019-03-22T10:56:52.136Z,98474.67
2019-03-22T10:59:18.598Z,98469.09
2019-03-22T11:01:52.267Z,98462.11
2019-03-22T11:04:13.529Z,98458.22
2019-03-22T11:06:40.123Z,98459.36
2019-03-22T11:09:07.790Z,98452.20
2019-03-22T11:11:34.526Z,98450.05
2019-03-22T11:14:01.063Z,98451.42
2019-03-22T11:16:27.527Z,98449.18
2019-03-22T11:18:54.054Z,98450.30
2019-03-22T11:21:20.361Z,98448.59
2019-03-22T11:23:46.795Z,98444.97
2019-03-22T11:26:13.179Z,98442.17
2019-03-22T11:28:39.663Z,98445.64
2019-03-22T11:31:06.453Z,98442.91
2019-03-22T11:33:32.866Z,98433.89
2019-03-22T11:35:59.368Z,98428.56
2019-03-22T11:38:25.864Z,98430.42
2019-03-22T11:40:52.358Z,98438.55
2019-03-22T11:43:18.973Z,98445.14
2019-03-22T11:45:45.475Z,98440.80
2019-03-22T11:48:12.146Z,98451.00
2019-03-22T11:50:38.881Z,98450.86
2019-03-22T11:53:05.428Z,98450.30
2019-03-22T11:55:32.661Z,98449.18
2019-03-22T11:57:59.048Z,98457.38
2019-03-22T12:00:26.519Z,98457.77
2019-03-22T12:02:53.185Z,98454.23
2019-03-22T12:05:21.266Z,98454.89
2019-03-22T12:07:47.913Z,98454.70
2019-03-22T12:10:19.766Z,98446.25
2019-03-22T12:12:46.803Z,98444.55
2019-03-22T12:15:19.659Z,98450.19
2019-03-22T12:17:46.544Z,98450.81
2019-03-22T12:20:16.968Z,98447.77
2019-03-22T12:22:43.755Z,98452.54
2019-03-22T12:25:14.346Z,98437.97
2019-03-22T12:27:41.021Z,98438.95
2019-03-22T12:30:13.845Z,98441.78
2019-03-22T12:32:40.283Z,98439.86
2019-03-22T12:35:09.075Z,98436.94
2019-03-22T12:37:35.724Z,98428.86
2019-03-22T12:40:07.651Z,98424.09
2019-03-22T12:42:34.358Z,98422.71
2019-03-22T12:45:00.859Z,98422.38
2019-03-22T12:47:27.702Z,98420.28
2019-03-22T12:49:54.126Z,98412.69
2019-03-22T12:52:20.543Z,98403.88
2019-03-22T12:54:47.024Z,98397.31
2019-03-22T12:57:13.535Z,98400.34
2019-03-22T12:59:40.070Z,98405.62
2019-03-22T13:02:06.587Z,98404.17
2019-03-22T13:04:33.243Z,98402.71
2019-03-22T13:06:59.932Z,98400.78
2019-03-22T13:09:26.263Z,98406.63
2019-03-22T13:11:52.548Z,98404.93
2019-03-22T13:14:18.975Z,98401.52
2019-03-22T13:16:45.566Z,98400.95
2019-03-22T13:19:11.969Z,98400.37
2019-03-22T13:21:38.786Z,98402.55
2019-03-22T13:24:05.179Z,98397.64
2019-03-22T13:26:31.860Z,98392.16
2019-03-22T13:28:58.346Z,98391.14
2019-03-22T13:31:24.783Z,98378.82
2019-03-22T13:33:51.175Z,98374.71
2019-03-22T13:36:17.607Z,98376.53
2019-03-22T13:38:44.409Z,98369.23
2019-03-22T13:41:11.274Z,98370.36
2019-03-22T13:43:37.758Z,98368.75
2019-03-22T13:46:04.250Z,98366.02
2019-03-22T13:48:31.186Z,98366.58
2019-03-22T13:50:57.584Z,98366.66
2019-03-22T13:53:24.125Z,98370.30
2019-03-22T13:55:50.532Z,98362.52
2019-03-22T13:58:17.122Z,98361.56
2019-03-22T14:00:43.732Z,98361.67
2019-03-22T14:03:10.346Z,98360.87
2019-03-22T14:05:36.862Z,98354.67
2019-03-22T14:08:03.501Z,98352.94
2019-03-22T14:10:34.916Z,98353.34
2019-03-22T14:13:05.241Z,98357.45
2019-03-22T14:15:32.188Z,98352.90
2019-03-22T14:17:59.287Z,98347.98
2019-03-22T14:20:25.981Z,98346.62
2019-03-22T14:22:53.976Z,98340.86
2019-03-22T14:25:20.700Z,98336.03
2019-03-22T14:27:47.232Z,98337.59
2019-03-22T14:30:14.230Z,98326.25
2019-03-22T14:32:40.743Z,98323.44
2019-03-22T14:35:09.519Z,98318.48
2019-03-22T14:37:36.309Z,98316.50
2019-03-22T14:40:05.052Z,98317.34
2019-03-22T14:42:31.546Z,98309.85
2019-03-22T14:44:57.988Z,98305.70
2019-03-22T14:47:24.381Z,98300.06
2019-03-22T14:49:50.976Z,98300.25
2019-03-22T14:52:17.360Z,98298.27
2019-03-22T14:54:43.758Z,98304.00
2019-03-22T14:57:10.261Z,98312.15
2019-03-22T14:59:36.695Z,98310.62
2019-03-22T15:02:03.385Z,98314.34
2019-03-22T15:04:29.990Z,98315.78
2019-03-22T15:06:56.688Z,98318.10
2019-03-22T15:09:23.246Z,98321.26
2019-03-22T15:11:49.639Z,98323.61
2019-03-22T15:14:34.749Z,98314.19
2019-03-22T15:17:01.165Z,98315.25
2019-03-22T15:19:46.132Z,98314.93
2019-03-22T15:22:15.034Z,98317.03
2019-03-22T15:24:58.559Z,98307.72
2019-03-22T15:27:39.880Z,98314.55
2019-03-22T15:30:10.894Z,98314.29
2019-03-22T15:32:43.464Z,98327.59
2019-03-22T15:35:21.201Z,98333.21
2019-03-22T15:38:06.067Z,98332.72
2019-03-22T15:40:32.542Z,98340.42
2019-03-22T15:42:59.132Z,98344.58
2019-03-22T15:45:25.541Z,98344.68
2019-03-22T15:47:52.576Z,98337.60
2019-03-22T15:50:19.275Z,98333.02
2019-03-22T15:52:45.591Z,98335.03
2019-03-22T15:55:12.311Z,98339.82
2019-03-22T15:57:41.524Z,98340.54
2019-03-22T16:00:15.462Z,98345.01
2019-03-22T16:02:42.198Z,98346.34
2019-03-22T16:05:10.207Z,98342.83
2019-03-22T16:07:37.082Z,98348.56
2019-03-22T16:10:06.943Z,98349.52
2019-03-22T16:12:33.585Z,98346.59
2019-03-22T16:14:59.999Z,98345.07
2019-03-22T16:17:26.463Z,98348.16
2019-03-22T16:19:52.859Z,98344.22
2019-03-22T16:22:19.166Z,98336.44
2019-03-22T16:24:45.672Z,98340.14
2019-03-22T16:27:12.316Z,98343.81
2019-03-22T16:29:38.627Z,98341.14
2019-03-22T16:32:05.059Z,98345.63
2019-03-22T16:34:31.459Z,98332.75
2019-03-22T16:36:57.892Z,98337.59
2019-03-22T16:39:24.296Z,98336.58
2019-03-22T16:41:51.336Z,98336.22
2019-03-22T16:44:17.988Z,98346.70
2019-03-22T16:46:44.531Z,98336.77
2019-03-22T16:49:10.930Z,98325.10
2019-03-22T16:51:37.431Z,98345.17
2019-03-22T16:54:04.547Z,98351.84
2019-03-22T16:56:31.072Z,98351.84
2019-03-22T16:58:57.361Z,98325.97
2019-03-22T17:01:24.079Z,98340.52
2019-03-22T17:03:50.507Z,98346.52
2019-03-22T17:06:17.116Z,98346.82
2019-03-22T17:08:43.568Z,98352.65
2019-03-22T17:11:10.069Z,98352.65
2019-03-22T17:13:36.599Z,98361.72
2019-03-22T17:16:03.323Z,98361.72
2019-03-22T17:18:30.051Z,98338.75
2019-03-22T17:20:56.500Z,98335.78
2019-03-22T17:23:22.935Z,98335.78
2019-03-22T17:25:49.751Z,98364.14
2019-03-22T17:28:16.434Z,98347.27
2019-03-22T17:30:42.763Z,98347.27
2019-03-22T17:33:09.289Z,98361.17
2019-03-22T17:35:35.902Z,98361.17
2019-03-22T17:38:02.608Z,98362.28
2019-03-22T17:40:29.081Z,98364.48
2019-03-22T17:42:55.466Z,98366.96
2019-03-22T17:45:22.083Z,98347.98
2019-03-22T17:47:48.595Z,98347.98
2019-03-22T17:50:15.393Z,98366.27
2019-03-22T17:52:41.885Z,98360.02
2019-03-22T17:55:09.919Z,98360.33
2019-03-22T17:57:36.470Z,98363.85
2019-03-22T18:00:06.432Z,98363.30
2019-03-22T18:02:32.933Z,98364.66
2019-03-22T18:04:59.247Z,98366.27
2019-03-22T18:07:25.556Z,98376.87
2019-03-22T18:09:51.875Z,98376.61
2019-03-22T18:12:18.551Z,98377.46
2019-03-22T18:14:44.845Z,98375.16
2019-03-22T18:17:11.153Z,98379.55
2019-03-22T18:19:37.790Z,98375.53
2019-03-22T18:22:04.196Z,98379.11
2019-03-22T18:24:30.509Z,98372.35
2019-03-22T18:26:57.038Z,98373.53
2019-03-22T18:29:23.355Z,98378.77
2019-03-22T18:31:50.112Z,98382.08
2019-03-22T18:34:16.507Z,98378.55
2019-03-22T18:36:42.915Z,98379.43
2019-03-22T18:39:09.338Z,98374.54
2019-03-22T18:41:35.932Z,98363.41
2019-03-22T18:44:02.313Z,98360.69
2019-03-22T18:46:28.612Z,98352.52
2019-03-22T18:48:55.499Z,98359.58
2019-03-22T18:51:21.793Z,98363.91
2019-03-22T18:53:48.517Z,98360.09
2019-03-22T18:56:14.939Z,98359.28
2019-03-22T18:58:41.276Z,98366.08
2019-03-22T19:01:07.675Z,98369.36
2019-03-22T19:03:34.008Z,98374.54
2019-03-22T19:06:00.396Z,98369.39
2019-03-22T19:08:27.018Z,98371.02
2019-03-22T19:10:53.648Z,98367.53
2019-03-22T19:13:30.196Z,98373.48
2019-03-22T19:15:48.388Z,98370.20
2019-03-22T19:18:15.209Z,98368.84
2019-03-22T19:20:41.659Z,98364.21
2019-03-22T19:23:08.270Z,98369.91
2019-03-22T19:25:35.817Z,98372.67
2019-03-22T19:28:02.495Z,98368.08
2019-03-22T19:30:28.785Z,98361.09
2019-03-22T19:32:55.187Z,98356.80
2019-03-22T19:35:21.651Z,98352.28
2019-03-22T19:37:48.156Z,98350.71
2019-03-22T19:40:16.499Z,98348.62
2019-03-22T19:42:43.208Z,98342.92
2019-03-22T19:45:13.683Z,98341.31
2019-03-22T19:47:40.278Z,98327.45
2019-03-22T19:50:10.231Z,98329.66
2019-03-22T19:52:36.513Z,98325.10
2019-03-22T19:55:08.531Z,98321.62
2019-03-22T19:57:36.123Z,98314.56
2019-03-22T20:00:10.346Z,98318.94
2019-03-22T20:02:37.014Z,98318.64
2019-03-22T20:05:07.323Z,98319.48
2019-03-22T20:07:33.736Z,98314.38
2019-03-22T20:10:00.303Z,98317.95
2019-03-22T20:12:26.827Z,98318.80
2019-03-22T20:14:53.856Z,98314.20
2019-03-22T20:17:20.193Z,98315.09
2019-03-22T20:19:46.870Z,98318.36
2019-03-22T20:22:13.282Z,98311.30
2019-03-22T20:24:40.001Z,98300.17
2019-03-22T20:27:06.538Z,98294.22
2019-03-22T20:29:32.977Z,98291.80
2019-03-22T20:31:59.372Z,98294.52
2019-03-22T20:34:25.824Z,98295.33
2019-03-22T20:36:52.201Z,98288.49
2019-03-22T20:39:19.025Z,98290.11
2019-03-22T20:41:45.419Z,98288.75
2019-03-22T20:44:12.081Z,98290.11
2019-03-22T20:46:38.403Z,98290.66
2019-03-22T20:49:05.238Z,98295.84
2019-03-22T20:51:31.740Z,98293.42
2019-03-22T20:53:58.176Z,98295.84
2019-03-22T20:56:24.542Z,98290.95
2019-03-22T20:58:51.319Z,98289.85
2019-03-22T21:01:17.631Z,98300.69
2019-03-22T21:03:43.932Z,98295.98
2019-03-22T21:06:10.344Z,98301.94
2019-03-22T21:08:36.768Z,98295.14
2019-03-22T21:11:03.386Z,98301.42
2019-03-22T21:13:29.932Z,98305.50
2019-03-22T21:15:56.541Z,98304.21
2019-03-22T21:18:23.167Z,98298.81
2019-03-22T21:20:50.021Z,98301.83
2019-03-22T21:23:16.520Z,98297.50
2019-03-22T21:25:43.076Z,98293.97
2019-03-22T21:28:09.524Z,98293.97
2019-03-22T21:30:35.950Z,98300.77
2019-03-22T21:33:02.474Z,98298.67
2019-03-22T21:35:36.944Z,98292.47
2019-03-22T21:37:57.714Z,98290.59
2019-03-22T21:40:24.105Z,98289.86
2019-03-22T21:42:50.537Z,98285.27
2019-03-22T21:45:16.939Z,98284.25
2019-03-22T21:47:43.431Z,98282.89
2019-03-22T21:50:10.119Z,98282.66
2019-03-22T21:52:36.519Z,98284.87
2019-03-22T21:55:05.913Z,98284.06
2019-03-22T21:57:32.479Z,98287.33
2019-03-22T21:59:59.194Z,98287.07
2019-03-22T22:02:25.657Z,98283.84
2019-03-22T22:04:52.470Z,98276.31
2019-03-22T22:07:19.024Z,98283.66
2019-03-22T22:09:45.758Z,98279.58
2019-03-22T22:12:12.079Z,98279.29
2019-03-22T22:14:40.964Z,98276.02
2019-03-22T22:17:07.309Z,98275.44
2019-03-22T22:19:34.048Z,98282.23
2019-03-22T22:22:00.584Z,98275.21
2019-03-22T22:24:27.024Z,98275.21
2019-03-22T22:26:53.486Z,98271.98
2019-03-22T22:29:20.088Z,98271.43
2019-03-22T22:31:46.522Z,98271.98
2019-03-22T22:34:13.282Z,98263.31
2019-03-22T22:36:39.697Z,98262.22
2019-03-22T22:39:06.723Z,98271.21
2019-03-22T22:41:33.380Z,98265.23
2019-03-22T22:43:59.715Z,98262.51
2019-03-22T22:46:26.143Z,98261.15
2019-03-22T22:48:52.882Z,98257.37
2019-03-22T22:51:19.321Z,98254.17
2019-03-22T22:53:46.073Z,98253.07
2019-03-22T22:56:12.440Z,98247.37
2019-03-22T22:58:38.825Z,98242.23
2019-03-22T23:01:05.415Z,98238.46
2019-03-22T23:03:31.839Z,98239.82
2019-03-22T23:06:08.867Z,98244.44
2019-03-22T23:08:26.547Z,98240.92
2019-03-22T23:10:53.856Z,98239.38
2019-03-22T23:13:20.259Z,98237.50
2019-03-22T23:15:46.611Z,98233.21
2019-03-22T23:18:13.005Z,98235.19
2019-03-22T23:20:39.426Z,98232.87
2019-03-22T23:23:05.951Z,98226.68
2019-03-22T23:25:32.250Z,98227.05
2019-03-22T23:27:58.868Z,98233.87
2019-03-22T23:30:25.278Z,98227.47
2019-03-22T23:32:51.712Z,98224.34
2019-03-22T23:35:18.194Z,98221.48
2019-03-22T23:37:44.656Z,98223.45
2019-03-22T23:40:11.127Z,98224.36
2019-03-22T23:42:37.587Z,98226.55
2019-03-22T23:45:06.665Z,98223.94
2019-03-22T23:47:33.071Z,98219.35
2019-03-22T23:49:59.438Z,98214.50
2019-03-22T23:52:25.822Z,98218.09
2019-03-22T23:54:52.264Z,98223.26
2019-03-22T23:57:18.650Z,98228.69
2019-03-22T23:59:45.040Z,98218.13
